createdAt,value
2019-02-03T00:02:07.745Z,100563.05
2019-02-03T00:04:37.184Z,100562.67
2019-02-03T00:07:06.480Z,100561.50
2019-02-03T00:09:36.780Z,100559.31
2019-02-03T00:12:06.065Z,100567.80
2019-02-03T00:14:35.325Z,100579.78
2019-02-03T00:17:05.893Z,100572.97
2019-02-03T00:19:36.258Z,100586.50
2019-02-03T00:22:06.912Z,100582.94
2019-02-03T00:24:37.264Z,100598.94
2019-02-03T00:27:07.523Z,100598.25
2019-02-03T00:29:36.741Z,100595.86
2019-02-03T00:32:06.115Z,100603.71
2019-02-03T00:34:35.505Z,100599.03
2019-02-03T00:37:15.383Z,100604.52
2019-02-03T00:39:35.886Z,100607.64
2019-02-03T00:42:05.273Z,100605.33
2019-02-03T00:44:34.555Z,100605.00
2019-02-03T00:47:03.820Z,100607.55
2019-02-03T00:49:33.101Z,100610.83
2019-02-03T00:52:03.429Z,100619.89
2019-02-03T00:54:32.861Z,100626.16
2019-02-03T00:57:02.111Z,100632.43
2019-02-03T00:59:31.372Z,100643.26
2019-02-03T01:02:00.614Z,100637.09
2019-02-03T01:04:29.865Z,100643.22
2019-02-03T01:06:59.117Z,100640.30
2019-02-03T01:09:28.434Z,100645.30
2019-02-03T01:11:57.847Z,100657.00
2019-02-03T01:14:27.163Z,100669.70
2019-02-03T01:16:56.414Z,100671.56
2019-02-03T01:19:25.686Z,100674.66
2019-02-03T01:21:55.285Z,100674.76
2019-02-03T01:24:24.601Z,100677.92
2019-02-03T01:26:53.852Z,100674.56
2019-02-03T01:29:23.085Z,100690.65
2019-02-03T01:31:52.362Z,100686.20
2019-02-03T01:34:21.599Z,100693.86
2019-02-03T01:36:50.901Z,100693.94
2019-02-03T01:39:20.139Z,100704.56
2019-02-03T01:41:49.392Z,100706.77
2019-02-03T01:44:19.598Z,100711.29
2019-02-03T01:46:48.843Z,100716.08
2019-02-03T01:49:18.285Z,100715.56
2019-02-03T01:51:47.512Z,100715.95
2019-02-03T01:54:16.767Z,100721.09
2019-02-03T01:56:46.010Z,100725.27
2019-02-03T01:59:15.263Z,100722.75
2019-02-03T02:01:50.722Z,100731.59
2019-02-03T02:04:19.993Z,100725.29
2019-02-03T02:06:49.233Z,100732.16
2019-02-03T02:09:19.454Z,100734.52
2019-02-03T02:11:48.806Z,100741.56
2019-02-03T02:14:20.054Z,100750.69
2019-02-03T02:16:49.294Z,100749.22
2019-02-03T02:19:18.631Z,100750.92
2019-02-03T02:21:47.937Z,100745.59
2019-02-03T02:24:17.205Z,100760.91
2019-02-03T02:26:46.453Z,100759.63
2019-02-03T02:29:15.994Z,100762.67
2019-02-03T02:31:45.246Z,100766.58
2019-02-03T02:34:14.548Z,100777.70
2019-02-03T02:36:43.777Z,100773.23
2019-02-03T02:39:13.047Z,100772.05
2019-02-03T02:41:42.441Z,100768.03
2019-02-03T02:44:12.596Z,100771.27
2019-02-03T02:46:41.873Z,100768.02
2019-02-03T02:49:11.220Z,100769.61
2019-02-03T02:51:40.445Z,100775.46
2019-02-03T02:54:09.675Z,100772.22
2019-02-03T02:56:39.235Z,100778.15
2019-02-03T02:59:08.548Z,100776.56
2019-02-03T03:01:37.809Z,100783.48
2019-02-03T03:04:07.067Z,100789.58
2019-02-03T03:06:36.341Z,100780.81
2019-02-03T03:09:08.861Z,100776.55
2019-02-03T03:11:39.154Z,100782.73
2019-02-03T03:14:08.426Z,100780.39
2019-02-03T03:16:37.690Z,100773.17
2019-02-03T03:19:06.961Z,100782.17
2019-02-03T03:21:36.230Z,100789.41
2019-02-03T03:24:05.562Z,100788.00
2019-02-03T03:26:34.902Z,100794.25
2019-02-03T03:29:04.141Z,100794.17
2019-02-03T03:31:33.539Z,100794.00
2019-02-03T03:34:03.160Z,100794.80
2019-02-03T03:36:32.397Z,100789.48
2019-02-03T03:39:01.640Z,100787.09
2019-02-03T03:41:30.931Z,100783.77
2019-02-03T03:44:00.185Z,100785.15
2019-02-03T03:46:29.399Z,100781.10
2019-02-03T03:48:58.678Z,100787.48
2019-02-03T03:51:28.202Z,100793.48
2019-02-03T03:53:57.451Z,100790.27
2019-02-03T03:56:28.654Z,100802.97
2019-02-03T03:58:57.935Z,100803.36
2019-02-03T04:01:27.182Z,100803.98
2019-02-03T04:03:57.901Z,100813.61
2019-02-03T04:06:27.227Z,100817.24
2019-02-03T04:08:57.433Z,100817.24
2019-02-03T04:11:26.839Z,100827.29
2019-02-03T04:13:56.137Z,100833.20
2019-02-03T04:16:25.394Z,100840.20
2019-02-03T04:18:55.586Z,100839.38
2019-02-03T04:21:24.838Z,100827.36
2019-02-03T04:23:54.170Z,100821.89
2019-02-03T04:26:23.428Z,100825.92
2019-02-03T04:28:52.739Z,100830.47
2019-02-03T04:31:22.284Z,100838.17
2019-02-03T04:33:51.576Z,100849.38
2019-02-03T04:36:20.812Z,100861.22
2019-02-03T04:38:57.603Z,100865.62
2019-02-03T04:41:21.101Z,100881.45
2019-02-03T04:43:50.433Z,100889.80
2019-02-03T04:46:20.609Z,100903.77
2019-02-03T04:48:49.885Z,100917.58
2019-02-03T04:51:19.126Z,100925.44
2019-02-03T04:53:49.330Z,100935.46
2019-02-03T04:56:18.600Z,100950.72
2019-02-03T04:58:48.125Z,100962.14
2019-02-03T05:01:17.408Z,100968.11
2019-02-03T05:03:46.662Z,100979.16
2019-02-03T05:06:15.930Z,100986.70
2019-02-03T05:08:45.171Z,100979.08
2019-02-03T05:11:14.422Z,100978.92
2019-02-03T05:13:43.686Z,100987.55
2019-02-03T05:16:12.946Z,100984.72
2019-02-03T05:18:43.196Z,100998.95
2019-02-03T05:21:12.459Z,100998.98
2019-02-03T05:23:41.707Z,101003.50
2019-02-03T05:26:11.252Z,101002.34
2019-02-03T05:28:40.498Z,100995.84
2019-02-03T05:31:09.748Z,101010.84
2019-02-03T05:33:40.006Z,101015.66
2019-02-03T05:36:09.271Z,101020.91
2019-02-03T05:38:38.512Z,101029.49
2019-02-03T05:41:07.763Z,101028.80
2019-02-03T05:43:36.996Z,101040.47
2019-02-03T05:46:06.232Z,101052.12
2019-02-03T05:48:36.410Z,101060.95
2019-02-03T05:51:05.744Z,101076.59
2019-02-03T05:53:35.294Z,101076.20
2019-02-03T05:56:05.683Z,101079.57
2019-02-03T05:58:34.922Z,101095.05
2019-02-03T06:01:04.303Z,101104.36
2019-02-03T06:03:33.564Z,101100.16
2019-02-03T06:06:02.812Z,101103.61
2019-02-03T06:08:32.070Z,101095.35
2019-02-03T06:11:01.317Z,101092.55
2019-02-03T06:13:30.559Z,101090.36
2019-02-03T06:15:59.838Z,101092.58
2019-02-03T06:18:29.998Z,101089.62
2019-02-03T06:20:59.961Z,101083.81
2019-02-03T06:23:29.234Z,101083.03
2019-02-03T06:25:58.526Z,101091.12
2019-02-03T06:28:27.774Z,101092.04
2019-02-03T06:31:00.221Z,101103.30
2019-02-03T06:33:29.579Z,101108.30
2019-02-03T06:35:58.839Z,101110.70
2019-02-03T06:38:29.152Z,101118.89
2019-02-03T06:40:58.443Z,101125.27
2019-02-03T06:43:27.753Z,101126.61
2019-02-03T06:46:02.530Z,101121.76
2019-02-03T06:48:31.783Z,101135.75
2019-02-03T06:51:01.099Z,101132.91
2019-02-03T06:53:31.354Z,101131.24
2019-02-03T06:56:02.579Z,101131.27
2019-02-03T06:58:31.849Z,101132.24
2019-02-03T07:01:01.092Z,101142.88
2019-02-03T07:03:31.323Z,101141.56
2019-02-03T07:06:00.621Z,101139.52
2019-02-03T07:08:29.864Z,101150.84
2019-02-03T07:10:59.121Z,101144.53
2019-02-03T07:13:28.641Z,101145.36
2019-02-03T07:15:57.888Z,101145.05
2019-02-03T07:18:27.157Z,101146.19
2019-02-03T07:20:56.412Z,101146.98
2019-02-03T07:23:25.692Z,101163.92
2019-02-03T07:25:55.046Z,101161.14
2019-02-03T07:28:24.279Z,101168.16
2019-02-03T07:30:54.555Z,101164.47
2019-02-03T07:33:23.790Z,101165.30
2019-02-03T07:35:53.172Z,101173.13
2019-02-03T07:38:22.414Z,101180.78
2019-02-03T07:40:51.962Z,101179.28
2019-02-03T07:43:22.639Z,101190.77
2019-02-03T07:45:51.893Z,101187.76
2019-02-03T07:48:22.114Z,101187.27
2019-02-03T07:50:51.548Z,101185.72
2019-02-03T07:53:20.839Z,101181.91
2019-02-03T07:55:50.134Z,101186.73
2019-02-03T07:58:19.442Z,101194.88
2019-02-03T08:00:48.699Z,101193.37
2019-02-03T08:03:17.943Z,101199.44
2019-02-03T08:05:47.324Z,101200.61
2019-02-03T08:08:16.577Z,101203.81
2019-02-03T08:10:45.811Z,101213.14
2019-02-03T08:13:15.070Z,101227.47
2019-02-03T08:15:44.307Z,101230.09
2019-02-03T08:18:13.583Z,101230.11
2019-02-03T08:20:42.882Z,101243.59
2019-02-03T08:23:12.491Z,101231.51
2019-02-03T08:25:42.000Z,101240.06
2019-02-03T08:28:11.276Z,101242.17
2019-02-03T08:30:40.533Z,101244.02
2019-02-03T08:33:09.828Z,101249.66
2019-02-03T08:35:39.181Z,101255.13
2019-02-03T08:38:08.636Z,101259.77
2019-02-03T08:40:37.972Z,101272.37
2019-02-03T08:43:07.301Z,101281.91
2019-02-03T08:45:37.315Z,101282.72
2019-02-03T08:48:06.694Z,101283.12
2019-02-03T08:50:37.586Z,101287.38
2019-02-03T08:53:07.799Z,101289.09
2019-02-03T08:55:37.073Z,101294.20
2019-02-03T08:58:06.315Z,101295.98
2019-02-03T09:00:37.452Z,101302.99
2019-02-03T09:03:08.765Z,101308.07
2019-02-03T09:05:38.088Z,101303.95
2019-02-03T09:08:09.418Z,101306.14
2019-02-03T09:10:48.041Z,101317.05
2019-02-03T09:13:09.604Z,101322.88
2019-02-03T09:15:39.784Z,101316.92
2019-02-03T09:18:09.191Z,101325.98
2019-02-03T09:20:38.523Z,101324.08
2019-02-03T09:23:07.843Z,101329.94
2019-02-03T09:25:38.220Z,101330.01
2019-02-03T09:28:08.374Z,101336.90
2019-02-03T09:30:39.048Z,101340.66
2019-02-03T09:33:08.534Z,101337.03
2019-02-03T09:35:37.837Z,101350.98
2019-02-03T09:38:12.472Z,101349.30
2019-02-03T09:40:40.733Z,101359.48
2019-02-03T09:43:09.983Z,101352.08
2019-02-03T09:45:39.235Z,101360.50
2019-02-03T09:48:09.431Z,101356.88
2019-02-03T09:50:38.717Z,101359.45
2019-02-03T09:53:08.032Z,101376.57
2019-02-03T09:55:37.271Z,101375.27
2019-02-03T09:58:06.885Z,101370.89
2019-02-03T10:00:39.330Z,101377.23
2019-02-03T10:03:11.031Z,101379.95
2019-02-03T10:05:40.269Z,101380.68
2019-02-03T10:08:09.615Z,101383.14
2019-02-03T10:10:41.234Z,101392.42
2019-02-03T10:13:10.648Z,101392.29
2019-02-03T10:15:39.894Z,101396.10
2019-02-03T10:18:09.923Z,101403.55
2019-02-03T10:20:39.298Z,101397.19
2019-02-03T10:23:08.551Z,101405.91
2019-02-03T10:25:37.795Z,101413.00
2019-02-03T10:28:07.191Z,101401.62
2019-02-03T10:30:37.986Z,101409.23
2019-02-03T10:33:07.367Z,101420.02
2019-02-03T10:35:36.706Z,101422.75
2019-02-03T10:38:06.338Z,101428.38
2019-02-03T10:40:39.560Z,101433.24
2019-02-03T10:43:09.240Z,101435.19
2019-02-03T10:45:38.543Z,101435.83
2019-02-03T10:48:07.890Z,101438.77
2019-02-03T10:50:39.151Z,101443.66
2019-02-03T10:53:10.794Z,101445.96
2019-02-03T10:55:40.096Z,101442.03
2019-02-03T10:58:09.533Z,101453.80
2019-02-03T11:00:43.141Z,101457.72
2019-02-03T11:03:12.452Z,101466.97
2019-02-03T11:05:45.242Z,101475.25
2019-02-03T11:08:14.551Z,101474.22
2019-02-03T11:10:45.223Z,101462.92
2019-02-03T11:13:14.932Z,101480.07
2019-02-03T11:15:44.316Z,101472.88
2019-02-03T11:18:14.003Z,101476.36
2019-02-03T11:20:43.239Z,101485.86
2019-02-03T11:23:12.582Z,101482.16
2019-02-03T11:25:41.845Z,101487.98
2019-02-03T11:28:11.146Z,101489.56
2019-02-03T11:30:40.425Z,101490.16
2019-02-03T11:33:10.041Z,101491.91
2019-02-03T11:35:39.406Z,101504.67
2019-02-03T11:38:08.829Z,101508.69
2019-02-03T11:40:41.353Z,101511.61
2019-02-03T11:43:09.733Z,101514.07
2019-02-03T11:45:41.655Z,101515.55
2019-02-03T11:48:19.779Z,101515.79
2019-02-03T11:50:50.474Z,101514.80
2019-02-03T11:53:22.661Z,101522.13
2019-02-03T11:55:53.899Z,101532.22
2019-02-03T11:58:22.959Z,101535.05
2019-02-03T12:00:52.267Z,101538.67
2019-02-03T12:03:21.564Z,101536.87
2019-02-03T12:05:50.759Z,101531.27
2019-02-03T12:08:21.351Z,101539.92
2019-02-03T12:10:50.657Z,101536.34
2019-02-03T12:13:20.188Z,101543.92
2019-02-03T12:15:49.506Z,101546.56
2019-02-03T12:18:18.820Z,101547.67
2019-02-03T12:20:48.071Z,101551.20
2019-02-03T12:23:18.287Z,101544.97
2019-02-03T12:25:48.533Z,101549.97
2019-02-03T12:28:17.785Z,101552.34
2019-02-03T12:30:47.032Z,101550.92
2019-02-03T12:33:16.248Z,101553.83
2019-02-03T12:35:45.488Z,101555.36
2019-02-03T12:38:14.727Z,101557.27
2019-02-03T12:40:44.052Z,101558.78
2019-02-03T12:43:14.191Z,101556.31
2019-02-03T12:45:43.415Z,101564.24
2019-02-03T12:48:13.659Z,101571.33
2019-02-03T12:50:42.963Z,101570.73
2019-02-03T12:53:12.504Z,101578.19
2019-02-03T12:55:44.660Z,101573.58
2019-02-03T12:58:12.763Z,101577.48
2019-02-03T13:00:42.011Z,101575.39
2019-02-03T13:03:11.410Z,101572.83
2019-02-03T13:05:40.661Z,101577.62
2019-02-03T13:08:16.829Z,101582.79
2019-02-03T13:10:46.098Z,101584.94
2019-02-03T13:13:15.356Z,101592.57
2019-02-03T13:15:50.630Z,101591.76
2019-02-03T13:18:20.272Z,101593.16
2019-02-03T13:20:49.478Z,101594.03
2019-02-03T13:23:19.695Z,101592.64
2019-02-03T13:25:50.889Z,101599.14
2019-02-03T13:28:20.720Z,101595.09
2019-02-03T13:30:50.654Z,101597.50
2019-02-03T13:33:21.793Z,101603.11
2019-02-03T13:35:50.814Z,101601.77
2019-02-03T13:38:20.048Z,101604.92
2019-02-03T13:40:49.295Z,101605.31
2019-02-03T13:43:18.595Z,101607.51
2019-02-03T13:45:47.849Z,101608.80
2019-02-03T13:48:17.147Z,101610.23
2019-02-03T13:50:46.395Z,101609.56
2019-02-03T13:53:18.792Z,101620.88
2019-02-03T13:55:48.054Z,101617.75
2019-02-03T13:58:17.297Z,101619.89
2019-02-03T14:00:47.129Z,101621.61
2019-02-03T14:03:16.316Z,101624.92
2019-02-03T14:05:45.713Z,101625.39
2019-02-03T14:08:14.956Z,101624.80
2019-02-03T14:10:44.539Z,101628.77
2019-02-03T14:13:15.763Z,101634.75
2019-02-03T14:15:47.676Z,101641.79
2019-02-03T14:18:16.928Z,101640.31
2019-02-03T14:20:47.157Z,101644.95
2019-02-03T14:23:16.559Z,101643.20
2019-02-03T14:25:45.789Z,101646.00
2019-02-03T14:28:15.947Z,101647.34
2019-02-03T14:30:45.196Z,101651.56
2019-02-03T14:33:15.364Z,101647.20
2019-02-03T14:35:45.896Z,101650.71
2019-02-03T14:38:15.126Z,101654.31
2019-02-03T14:40:46.436Z,101660.64
2019-02-03T14:43:15.666Z,101661.11
2019-02-03T14:45:44.898Z,101667.85
2019-02-03T14:48:14.148Z,101663.61
2019-02-03T14:50:44.238Z,101670.87
2019-02-03T14:53:18.405Z,101671.08
2019-02-03T14:55:51.624Z,101671.30
2019-02-03T14:58:19.560Z,101673.45
2019-02-03T15:00:49.359Z,101674.27
2019-02-03T15:03:19.952Z,101672.36
2019-02-03T15:05:49.238Z,101675.49
2019-02-03T15:08:18.538Z,101680.83
2019-02-03T15:10:48.715Z,101678.61
2019-02-03T15:13:17.957Z,101677.43
2019-02-03T15:15:47.195Z,101684.72
2019-02-03T15:18:17.357Z,101684.69
2019-02-03T15:20:46.583Z,101688.13
2019-02-03T15:23:16.774Z,101692.66
2019-02-03T15:25:46.058Z,101693.45
2019-02-03T15:28:15.597Z,101695.58
2019-02-03T15:30:47.125Z,101697.51
2019-02-03T15:33:16.365Z,101702.03
2019-02-03T15:35:45.659Z,101703.42
2019-02-03T15:38:14.914Z,101707.80
2019-02-03T15:40:44.426Z,101708.26
2019-02-03T15:43:24.643Z,101719.86
2019-02-03T15:45:44.585Z,101718.70
2019-02-03T15:48:13.907Z,101733.20
2019-02-03T15:50:45.926Z,101728.12
2019-02-03T15:53:16.443Z,101726.87
2019-02-03T15:55:45.665Z,101733.65
2019-02-03T15:58:16.869Z,101732.80
2019-02-03T16:00:49.150Z,101745.37
2019-02-03T16:03:18.407Z,101742.22
2019-02-03T16:05:47.625Z,101750.48
2019-02-03T16:08:16.909Z,101752.78
2019-02-03T16:10:46.223Z,101751.13
2019-02-03T16:13:15.454Z,101749.17
2019-02-03T16:15:45.701Z,101752.87
2019-02-03T16:18:14.925Z,101762.41
2019-02-03T16:20:44.455Z,101759.56
2019-02-03T16:23:13.686Z,101759.57
2019-02-03T16:25:43.967Z,101762.21
2019-02-03T16:28:13.180Z,101770.81
2019-02-03T16:30:43.728Z,101771.91
2019-02-03T16:33:14.212Z,101772.97
2019-02-03T16:35:43.471Z,101784.70
2019-02-03T16:38:22.442Z,101778.82
2019-02-03T16:40:44.643Z,101792.59
2019-02-03T16:43:13.874Z,101793.77
2019-02-03T16:45:43.137Z,101798.81
2019-02-03T16:48:13.500Z,101796.50
2019-02-03T16:50:43.725Z,101804.16
2019-02-03T16:53:13.732Z,101808.03
2019-02-03T16:55:43.938Z,101809.37
2019-02-03T16:58:13.191Z,101814.28
2019-02-03T17:00:47.270Z,101814.12
2019-02-03T17:03:16.572Z,101823.52
2019-02-03T17:05:45.848Z,101835.92
2019-02-03T17:08:16.069Z,101832.72
2019-02-03T17:10:46.420Z,101825.61
2019-02-03T17:13:21.494Z,101828.06
2019-02-03T17:15:53.772Z,101835.39
2019-02-03T17:18:23.016Z,101838.11
2019-02-03T17:21:01.544Z,101838.45
2019-02-03T17:23:23.244Z,101838.31
2019-02-03T17:25:55.674Z,101844.63
2019-02-03T17:28:24.901Z,101849.98
2019-02-03T17:30:54.211Z,101853.66
2019-02-03T17:33:24.485Z,101860.86
2019-02-03T17:35:54.972Z,101865.55
2019-02-03T17:38:25.162Z,101856.38
2019-02-03T17:40:54.471Z,101866.39
2019-02-03T17:43:23.777Z,101868.91
2019-02-03T17:45:53.088Z,101869.40
2019-02-03T17:48:22.320Z,101881.93
2019-02-03T17:50:52.111Z,101879.91
2019-02-03T17:53:21.449Z,101881.94
2019-02-03T17:55:50.750Z,101881.44
2019-02-03T17:58:20.991Z,101878.95
2019-02-03T18:00:55.270Z,101873.95
2019-02-03T18:03:24.562Z,101879.62
2019-02-03T18:05:53.832Z,101878.25
2019-02-03T18:08:23.103Z,101888.67
2019-02-03T18:10:53.326Z,101887.16
2019-02-03T18:13:22.553Z,101888.13
2019-02-03T18:15:52.764Z,101893.30
2019-02-03T18:18:22.033Z,101896.67
2019-02-03T18:20:51.677Z,101897.07
2019-02-03T18:23:21.974Z,101900.70
2019-02-03T18:25:51.374Z,101894.47
2019-02-03T18:28:20.607Z,101900.05
2019-02-03T18:30:49.938Z,101900.42
2019-02-03T18:33:20.164Z,101902.55
2019-02-03T18:35:49.429Z,101900.11
2019-02-03T18:38:18.664Z,101902.38
2019-02-03T18:40:47.939Z,101908.44
2019-02-03T18:43:17.197Z,101912.86
2019-02-03T18:45:46.504Z,101908.55
2019-02-03T18:48:18.108Z,101907.22
2019-02-03T18:50:49.066Z,101918.30
2019-02-03T18:53:18.412Z,101916.70
2019-02-03T18:55:48.682Z,101931.20
2019-02-03T18:58:17.980Z,101931.59
2019-02-03T19:00:47.267Z,101932.11
2019-02-03T19:03:16.574Z,101936.92
2019-02-03T19:05:45.844Z,101941.72
2019-02-03T19:08:16.048Z,101939.08
2019-02-03T19:10:45.307Z,101936.48
2019-02-03T19:13:14.569Z,101943.62
2019-02-03T19:15:44.099Z,101950.75
2019-02-03T19:18:13.357Z,101946.00
2019-02-03T19:20:44.134Z,101950.82
2019-02-03T19:23:14.604Z,101953.55
2019-02-03T19:25:43.918Z,101957.38
2019-02-03T19:28:17.818Z,101959.98
2019-02-03T19:30:48.974Z,101962.98
2019-02-03T19:33:18.219Z,101967.83
2019-02-03T19:35:49.456Z,101975.01
2019-02-03T19:38:18.861Z,101974.41
2019-02-03T19:40:48.122Z,101979.23
2019-02-03T19:43:18.417Z,101976.05
2019-02-03T19:45:47.708Z,101976.05
2019-02-03T19:48:16.964Z,101980.16
2019-02-03T19:50:49.355Z,101984.00
2019-02-03T19:53:18.622Z,101983.73
2019-02-03T19:55:47.844Z,101984.19
2019-02-03T19:58:17.083Z,101986.60
2019-02-03T20:00:46.598Z,101993.73
2019-02-03T20:03:15.999Z,101988.73
2019-02-03T20:05:45.220Z,102003.93
2019-02-03T20:08:14.515Z,102002.70
2019-02-03T20:10:43.841Z,102005.47
2019-02-03T20:13:13.143Z,102009.53
2019-02-03T20:15:42.482Z,102016.60
2019-02-03T20:18:11.726Z,102019.72
2019-02-03T20:20:41.991Z,102019.06
2019-02-03T20:23:11.667Z,102021.30
2019-02-03T20:25:46.103Z,102028.27
2019-02-03T20:28:15.417Z,102023.86
2019-02-03T20:30:44.691Z,102023.25
2019-02-03T20:33:14.012Z,102023.40
2019-02-03T20:35:44.735Z,102033.02
2019-02-03T20:38:13.994Z,102028.36
2019-02-03T20:40:44.490Z,102028.83
2019-02-03T20:43:14.074Z,102031.64
2019-02-03T20:45:49.410Z,102039.31
2019-02-03T20:48:14.280Z,102029.39
2019-02-03T20:50:43.768Z,102035.57
2019-02-03T20:53:14.014Z,102045.70
2019-02-03T20:55:43.341Z,102053.05
2019-02-03T20:58:12.594Z,102054.38
2019-02-03T21:00:41.956Z,102058.08
2019-02-03T21:03:11.283Z,102049.72
2019-02-03T21:05:40.529Z,102053.91
2019-02-03T21:08:10.877Z,102052.92
2019-02-03T21:10:40.137Z,102055.23
2019-02-03T21:13:11.858Z,102061.46
2019-02-03T21:15:41.311Z,102067.95
2019-02-03T21:18:11.711Z,102079.82
2019-02-03T21:20:41.057Z,102077.53
2019-02-03T21:23:10.296Z,102076.28
2019-02-03T21:25:39.531Z,102077.19
2019-02-03T21:28:08.943Z,102087.16
2019-02-03T21:30:38.961Z,102089.14
2019-02-03T21:33:10.467Z,102088.03
2019-02-03T21:35:39.876Z,102089.50
2019-02-03T21:38:09.362Z,102089.69
2019-02-03T21:40:38.686Z,102090.89
2019-02-03T21:43:07.952Z,102098.52
2019-02-03T21:45:44.767Z,102105.20
2019-02-03T21:48:10.585Z,102106.83
2019-02-03T21:50:39.823Z,102100.93
2019-02-03T21:53:10.046Z,102104.72
2019-02-03T21:55:39.268Z,102099.41
2019-02-03T21:58:08.744Z,102101.16
2019-02-03T22:00:38.094Z,102108.34
2019-02-03T22:03:07.372Z,102114.09
2019-02-03T22:05:36.645Z,102116.59
2019-02-03T22:08:06.061Z,102111.28
2019-02-03T22:10:37.531Z,102108.41
2019-02-03T22:13:08.817Z,102108.77
2019-02-03T22:15:38.062Z,102109.73
2019-02-03T22:18:07.295Z,102110.35
2019-02-03T22:20:37.577Z,102112.29
2019-02-03T22:23:06.827Z,102113.62
2019-02-03T22:25:36.353Z,102115.34
2019-02-03T22:28:05.706Z,102119.14
2019-02-03T22:30:37.182Z,102124.34
2019-02-03T22:33:06.982Z,102121.80
2019-02-03T22:35:37.233Z,102126.35
2019-02-03T22:38:06.855Z,102124.41
2019-02-03T22:40:43.026Z,102124.27
2019-02-03T22:43:12.260Z,102122.86
2019-02-03T22:45:41.530Z,102133.10
2019-02-03T22:48:10.785Z,102129.36
2019-02-03T22:50:40.304Z,102129.11
2019-02-03T22:53:09.672Z,102133.53
2019-02-03T22:55:38.911Z,102132.16
2019-02-03T22:58:08.167Z,102129.36
2019-02-03T23:00:53.587Z,102131.70
2019-02-03T23:03:29.188Z,102130.18
2019-02-03T23:05:58.484Z,102126.10
2019-02-03T23:08:27.771Z,102135.69
2019-02-03T23:10:57.024Z,102136.16
2019-02-03T23:13:26.262Z,102137.17
2019-02-03T23:15:55.510Z,102133.51
2019-02-03T23:18:24.740Z,102129.36
2019-02-03T23:20:54.911Z,102133.44
2019-02-03T23:23:24.192Z,102130.48
2019-02-03T23:25:53.491Z,102121.63
2019-02-03T23:28:23.978Z,102119.53
2019-02-03T23:30:53.227Z,102122.25
2019-02-03T23:33:22.466Z,102119.84
2019-02-03T23:35:51.807Z,102117.05
2019-02-03T23:38:21.026Z,102113.11
2019-02-03T23:40:52.935Z,102113.12
2019-02-03T23:43:22.167Z,102117.02
2019-02-03T23:45:52.401Z,102106.38
2019-02-03T23:48:21.626Z,102109.06
2019-02-03T23:50:51.833Z,102110.70
2019-02-03T23:53:21.069Z,102123.28
2019-02-03T23:55:50.489Z,102118.14
2019-02-03T23:58:20.808Z,102112.30
